Time;durP1;ratioP1;P1;durP2;ratioP2;P2;SDS_P1;SDS_P2;PMS_P1;PMS_P2;Temp;Humidity;BMP_temperature;BMP_pressure;BME280_temperature;BME280_humidity;BME280_pressure;Samples;Min_cycle;Max_cycle;Signal;HPM_P1;HPM_P2
2023/09/01 00:02:19;;;;;;;2.35;1.88;;;21.80;58.90;;;;;;4996184;28;20229;-84
2023/09/01 00:04:56;;;;;;;2.22;1.98;;;21.90;59.00;;;;;;4995984;28;20185;-83
2023/09/01 00:07:24;;;;;;;2.17;1.88;;;21.90;59.10;;;;;;5008236;28;20209;-83
2023/09/01 00:09:51;;;;;;;2.92;2.15;;;21.90;59.00;;;;;;5005336;28;20201;-84
2023/09/01 00:12:18;;;;;;;2.58;1.90;;;21.90;59.10;;;;;;5009252;28;20228;-83
2023/09/01 00:14:46;;;;;;;2.10;1.90;;;21.90;59.10;;;;;;5000124;28;20208;-81
2023/09/01 00:17:14;;;;;;;2.78;1.90;;;21.80;59.00;;;;;;4995996;28;20252;-82
2023/09/01 00:19:41;;;;;;;2.40;2.20;;;21.80;59.10;;;;;;4995732;28;20225;-82
2023/09/01 00:22:08;;;;;;;2.22;1.90;;;21.80;59.10;;;;;;5004234;28;20229;-82
2023/09/01 00:24:36;;;;;;;2.50;2.08;;;21.80;59.10;;;;;;5014002;28;20188;-82
2023/09/01 00:27:03;;;;;;;2.05;1.85;;;21.80;59.10;;;;;;5014474;28;20244;-82
2023/09/01 00:29:33;;;;;;;2.38;1.90;;;21.80;59.20;;;;;;5009930;28;20190;-82
2023/09/01 00:32:01;;;;;;;2.17;1.80;;;21.80;59.10;;;;;;4998072;28;20237;-81
2023/09/01 00:34:30;;;;;;;2.35;1.92;;;21.80;59.20;;;;;;4999627;28;20201;-81
2023/09/01 00:36:57;;;;;;;2.53;2.33;;;21.80;59.20;;;;;;5000262;28;20205;-82
2023/09/01 00:39:25;;;;;;;2.10;1.90;;;21.80;59.20;;;;;;4998443;28;20357;-81
2023/09/01 00:41:52;;;;;;;2.47;1.90;;;21.80;59.20;;;;;;4998227;28;20217;-81
2023/09/01 00:44:19;;;;;;;2.40;2.00;;;21.70;59.20;;;;;;4998285;28;20212;-82
2023/09/01 00:46:47;;;;;;;2.20;2.00;;;21.80;59.20;;;;;;4981900;28;20644;-82
2023/09/01 00:49:17;;;;;;;2.42;1.80;;;21.70;59.20;;;;;;4997483;28;20215;-82
2023/09/01 00:51:47;;;;;;;3.10;1.83;;;21.80;59.30;;;;;;4998034;28;20632;-82
2023/09/01 00:54:14;;;;;;;2.75;1.90;;;21.70;59.10;;;;;;4997599;28;20197;-81
2023/09/01 00:56:41;;;;;;;2.13;1.92;;;21.70;59.20;;;;;;4997750;28;20603;-81
2023/09/01 00:59:08;;;;;;;2.00;1.80;;;21.70;59.10;;;;;;4997323;28;20213;-81
2023/09/01 01:01:35;;;;;;;2.25;2.05;;;21.70;59.20;;;;;;4996492;28;20280;-81
2023/09/01 01:04:07;;;;;;;2.15;1.85;;;21.80;59.30;;;;;;4996266;28;20255;-81
2023/09/01 01:06:44;;;;;;;2.50;2.10;;;21.80;59.30;;;;;;4996160;28;20200;-82
2023/09/01 01:09:15;;;;;;;1.80;1.70;;;21.80;59.30;;;;;;4994690;28;20212;-82
2023/09/01 01:11:45;;;;;;;2.47;1.83;;;21.80;59.30;;;;;;4994089;28;20244;-82
2023/09/01 01:14:15;;;;;;;1.77;1.65;;;21.80;59.30;;;;;;4995649;28;20174;-81
2023/09/01 01:16:42;;;;;;;1.92;1.73;;;21.70;59.30;;;;;;4994195;28;20205;-82
2023/09/01 01:19:23;;;;;;;2.35;1.70;;;21.70;59.30;;;;;;4994691;28;20197;-82
2023/09/01 01:21:53;;;;;;;2.25;2.05;;;21.70;59.30;;;;;;4994118;28;20217;-82
2023/09/01 01:24:23;;;;;;;2.03;1.83;;;21.70;59.40;;;;;;4994533;28;20189;-81
2023/09/01 01:26:50;;;;;;;2.13;1.92;;;21.70;59.40;;;;;;4993894;28;20197;-82
2023/09/01 01:29:17;;;;;;;2.17;1.83;;;21.70;59.40;;;;;;4994949;28;20232;-81
2023/09/01 01:31:44;;;;;;;2.13;1.80;;;21.70;59.40;;;;;;4993422;28;20312;-81
2023/09/01 01:34:27;;;;;;;2.05;1.85;;;21.70;59.40;;;;;;5009984;28;20682;-81
2023/09/01 01:36:58;;;;;;;2.17;1.90;;;21.70;59.40;;;;;;5009821;28;20264;-81
2023/09/01 01:39:28;;;;;;;2.00;1.80;;;21.70;59.50;;;;;;4993381;28;20267;-81
2023/09/01 01:41:56;;;;;;;2.60;2.00;;;21.70;59.50;;;;;;4993414;28;20703;-81
2023/09/01 01:44:25;;;;;;;2.03;1.80;;;21.70;59.50;;;;;;4993320;28;20194;-81
2023/09/01 01:46:52;;;;;;;2.30;1.85;;;21.70;59.50;;;;;;4993499;28;20205;-81
2023/09/01 01:49:19;;;;;;;2.00;1.80;;;21.60;59.40;;;;;;4993452;28;20679;-81
2023/09/01 01:51:47;;;;;;;1.98;1.77;;;21.70;59.50;;;;;;4994318;28;20397;-82
2023/09/01 01:54:14;;;;;;;1.98;1.77;;;21.60;59.40;;;;;;4993519;28;20205;-81
2023/09/01 01:56:43;;;;;;;2.80;1.80;;;21.70;59.50;;;;;;4993513;28;20201;-82
2023/09/01 01:59:10;;;;;;;2.08;1.75;;;21.70;59.50;;;;;;4993139;28;20292;-82
2023/09/01 02:01:38;;;;;;;2.38;1.83;;;21.60;59.40;;;;;;4993383;28;20254;-82
2023/09/01 02:04:05;;;;;;;2.03;1.83;;;21.70;59.50;;;;;;4995479;28;20291;-82
2023/09/01 02:06:32;;;;;;;1.98;1.70;;;21.70;59.50;;;;;;4998507;28;20197;-82
2023/09/01 02:09:00;;;;;;;2.28;2.08;;;21.60;59.50;;;;;;4997571;28;20205;-82
2023/09/01 02:11:27;;;;;;;2.00;1.77;;;21.70;59.50;;;;;;4996964;28;20297;-82
2023/09/01 02:13:57;;;;;;;1.95;1.85;;;21.60;59.50;;;;;;4997816;28;20221;-82
2023/09/01 02:16:25;;;;;;;1.90;1.80;;;21.60;59.50;;;;;;5013671;28;20212;-81
2023/09/01 02:18:52;;;;;;;2.20;2.00;;;21.70;59.60;;;;;;4997662;28;20209;-81
2023/09/01 02:21:19;;;;;;;1.90;1.70;;;21.60;59.60;;;;;;4998458;28;20252;-81
2023/09/01 02:23:47;;;;;;;1.88;1.70;;;21.60;59.60;;;;;;4999082;28;20194;-81
2023/09/01 02:26:18;;;;;;;2.35;1.77;;;21.60;59.60;;;;;;4998002;28;20201;-81
2023/09/01 02:28:45;;;;;;;1.52;1.42;;;21.60;59.60;;;;;;4997282;28;20201;-82
2023/09/01 02:31:14;;;;;;;1.75;1.65;;;21.60;59.60;;;;;;4998059;28;20680;-82
2023/09/01 02:33:41;;;;;;;2.13;1.75;;;21.60;59.70;;;;;;4997829;28;20203;-82
2023/09/01 02:36:26;;;;;;;1.90;1.70;;;21.60;59.70;;;;;;4997312;28;20201;-82
2023/09/01 02:38:54;;;;;;;1.98;1.60;;;21.60;59.70;;;;;;4998598;28;20215;-82
2023/09/01 02:41:21;;;;;;;2.30;2.00;;;21.60;59.70;;;;;;4996828;28;20244;-82
2023/09/01 02:43:48;;;;;;;3.92;1.90;;;21.60;59.70;;;;;;4997245;28;20228;-82
2023/09/01 02:46:17;;;;;;;1.98;1.88;;;21.60;59.70;;;;;;4997293;28;20197;-82
2023/09/01 02:48:44;;;;;;;2.00;1.75;;;21.60;59.70;;;;;;4997445;28;20197;-82
2023/09/01 02:51:13;;;;;;;3.42;1.70;;;21.60;59.70;;;;;;4997034;28;20724;-82
2023/09/01 02:53:40;;;;;;;2.03;1.83;;;21.60;59.80;;;;;;4998054;28;20213;-82
2023/09/01 02:56:07;;;;;;;1.90;1.80;;;21.60;59.70;;;;;;4997382;28;20201;-82
2023/09/01 02:58:34;;;;;;;2.28;1.60;;;21.60;59.80;;;;;;4997021;28;20739;-82
2023/09/01 03:01:07;;;;;;;2.88;1.80;;;21.60;59.70;;;;;;4996861;28;20232;-82
2023/09/01 03:03:36;;;;;;;1.95;1.75;;;21.60;59.80;;;;;;4996657;28;20656;-82
2023/09/01 03:06:05;;;;;;;1.92;1.55;;;21.60;59.80;;;;;;4996624;28;20256;-82
2023/09/01 03:08:33;;;;;;;2.03;1.70;;;21.60;59.80;;;;;;4997957;28;20676;-82
2023/09/01 03:11:00;;;;;;;2.40;1.60;;;21.60;59.80;;;;;;4996654;28;20256;-82
2023/09/01 03:13:27;;;;;;;2.45;1.80;;;21.60;59.80;;;;;;4997039;28;20268;-82
2023/09/01 03:15:54;;;;;;;1.83;1.60;;;21.60;59.80;;;;;;4995301;28;20288;-82
2023/09/01 03:18:21;;;;;;;1.75;1.63;;;21.60;59.80;;;;;;4996416;28;20197;-82
2023/09/01 03:20:50;;;;;;;1.92;1.60;;;21.60;59.80;;;;;;4995957;28;20236;-82
2023/09/01 03:23:17;;;;;;;1.60;1.50;;;21.60;59.80;;;;;;4995658;28;20232;-82
2023/09/01 03:25:45;;;;;;;1.70;1.42;;;21.60;59.70;;;;;;4996801;28;20295;-82
2023/09/01 03:28:12;;;;;;;1.90;1.70;;;21.70;59.80;;;;;;5012676;28;20198;-82
2023/09/01 03:30:39;;;;;;;1.65;1.50;;;21.70;59.70;;;;;;4995672;28;20213;-82
2023/09/01 03:33:06;;;;;;;2.30;1.65;;;21.70;59.60;;;;;;4995529;28;20200;-82
2023/09/01 03:35:33;;;;;;;1.65;1.55;;;21.80;59.60;;;;;;4996645;28;20205;-82
2023/09/01 03:38:04;;;;;;;1.88;1.60;;;21.80;59.50;;;;;;4996058;28;20325;-82
2023/09/01 03:40:31;;;;;;;2.40;1.67;;;21.80;59.50;;;;;;4995577;28;20229;-82
2023/09/01 03:42:58;;;;;;;2.63;1.83;;;21.80;59.40;;;;;;4996004;28;20198;-81
2023/09/01 03:45:26;;;;;;;2.40;1.70;;;21.80;59.30;;;;;;4996162;28;20251;-82
2023/09/01 03:47:53;;;;;;;1.50;1.40;;;21.90;59.40;;;;;;4980355;28;20221;-82
2023/09/01 03:50:20;;;;;;;2.53;1.55;;;21.90;59.30;;;;;;4996055;28;20197;-82
2023/09/01 03:52:47;;;;;;;2.15;1.63;;;21.90;59.30;;;;;;4997222;28;20224;-82
2023/09/01 03:55:15;;;;;;;1.90;1.67;;;21.90;59.20;;;;;;4996098;28;20197;-82
2023/09/01 03:57:43;;;;;;;1.73;1.63;;;21.90;59.20;;;;;;4997338;28;20193;-82
2023/09/01 04:00:12;;;;;;;1.75;1.65;;;21.90;59.20;;;;;;5018353;28;20205;-83
2023/09/01 04:02:42;;;;;;;1.50;1.40;;;21.90;59.20;;;;;;5019020;28;20297;-82
2023/09/01 04:05:09;;;;;;;2.08;1.70;;;21.90;59.10;;;;;;4999720;28;20233;-82
2023/09/01 04:07:36;;;;;;;2.20;1.55;;;21.90;59.10;;;;;;4996082;28;20198;-82
2023/09/01 04:10:04;;;;;;;1.88;1.52;;;21.90;59.10;;;;;;4996793;28;20209;-81
2023/09/01 04:12:34;;;;;;;1.52;1.42;;;21.90;59.10;;;;;;5011114;28;20201;-82
2023/09/01 04:15:01;;;;;;;1.40;1.30;;;21.90;59.10;;;;;;4995243;28;20201;-82
2023/09/01 04:17:30;;;;;;;1.83;1.73;;;21.90;59.00;;;;;;4995000;28;20205;-81
2023/09/01 04:19:57;;;;;;;1.50;1.40;;;22.00;59.10;;;;;;4980273;28;20212;-83
2023/09/01 04:22:25;;;;;;;1.50;1.40;;;22.00;59.10;;;;;;4996000;28;20225;-81
2023/09/01 04:24:52;;;;;;;2.17;1.58;;;21.90;59.00;;;;;;4995317;28;20205;-82
2023/09/01 04:27:20;;;;;;;1.50;1.40;;;22.00;58.90;;;;;;4995815;28;20723;-82
2023/09/01 04:29:48;;;;;;;2.70;1.55;;;21.90;58.80;;;;;;4996433;28;20201;-83
2023/09/01 04:32:15;;;;;;;2.35;1.80;;;21.90;58.90;;;;;;4996648;28;20213;-83
2023/09/01 04:34:43;;;;;;;1.40;1.30;;;21.90;59.10;;;;;;4996913;28;20248;-83
2023/09/01 04:37:10;;;;;;;2.95;1.55;;;21.90;59.20;;;;;;4995675;28;20207;-83
2023/09/01 04:39:37;;;;;;;3.28;1.90;;;21.90;59.10;;;;;;4995455;28;20197;-83
2023/09/01 04:42:05;;;;;;;2.13;1.40;;;21.90;59.20;;;;;;4977480;28;20284;-84
2023/09/01 04:44:33;;;;;;;1.98;1.60;;;21.90;59.30;;;;;;4994885;28;20200;-83
2023/09/01 04:47:01;;;;;;;3.13;1.75;;;21.80;59.50;;;;;;4994724;28;20206;-82
2023/09/01 04:49:29;;;;;;;2.72;1.58;;;21.80;59.60;;;;;;4994387;28;20194;-82
2023/09/01 04:51:57;;;;;;;2.65;1.40;;;21.80;59.60;;;;;;4994471;28;20275;-82
2023/09/01 04:54:24;;;;;;;6.88;1.88;;;21.80;59.50;;;;;;4994433;28;20193;-82
2023/09/01 04:56:51;;;;;;;2.25;1.58;;;21.80;59.30;;;;;;4994447;28;20267;-82
2023/09/01 04:59:19;;;;;;;6.32;1.83;;;21.80;59.50;;;;;;4994530;28;20202;-82
2023/09/01 05:01:46;;;;;;;3.15;1.42;;;21.80;59.50;;;;;;4994526;28;20243;-82
2023/09/01 05:04:15;;;;;;;4.03;1.60;;;21.80;59.60;;;;;;4994417;28;20203;-82
2023/09/01 05:06:42;;;;;;;1.70;1.60;;;21.80;59.80;;;;;;4994333;28;20618;-82
2023/09/01 05:09:09;;;;;;;2.70;1.48;;;21.80;59.90;;;;;;4994415;28;20209;-83
2023/09/01 05:11:37;;;;;;;3.97;1.65;;;21.70;59.80;;;;;;4995407;28;20228;-82
2023/09/01 05:14:04;;;;;;;1.88;1.50;;;21.70;60.00;;;;;;4990154;28;20201;-82
2023/09/01 05:16:31;;;;;;;2.42;1.70;;;21.70;59.90;;;;;;4994554;28;20205;-82
2023/09/01 05:18:59;;;;;;;1.73;1.40;;;21.70;59.80;;;;;;4994894;28;20225;-82
2023/09/01 05:21:27;;;;;;;1.90;1.60;;;21.70;59.80;;;;;;4993540;28;20217;-82
2023/09/01 05:23:55;;;;;;;2.17;1.52;;;21.60;59.80;;;;;;4995194;28;20200;-82
2023/09/01 05:26:22;;;;;;;2.65;1.60;;;21.60;59.90;;;;;;4995306;28;20209;-82
2023/09/01 05:28:49;;;;;;;4.25;1.60;;;21.60;59.90;;;;;;4994936;28;20197;-82
2023/09/01 05:31:16;;;;;;;2.38;1.67;;;21.60;60.00;;;;;;4994699;28;20676;-82
2023/09/01 05:33:46;;;;;;;3.88;1.45;;;21.60;60.00;;;;;;4994967;28;20202;-82
2023/09/01 05:36:13;;;;;;;1.50;1.40;;;21.60;60.10;;;;;;4994073;28;20202;-82
2023/09/01 05:38:41;;;;;;;2.33;1.52;;;21.50;60.00;;;;;;4996788;28;20569;-82
2023/09/01 05:41:10;;;;;;;1.83;1.50;;;21.60;60.10;;;;;;4998247;28;20225;-82
2023/09/01 05:43:37;;;;;;;1.70;1.60;;;21.60;60.10;;;;;;4998304;28;20714;-81
2023/09/01 05:46:05;;;;;;;4.35;1.50;;;21.50;61.00;;;;;;4998512;28;20193;-81
2023/09/01 05:48:31;;;;;;;1.45;1.25;;;21.50;60.20;;;;;;4998137;28;20193;-81
2023/09/01 05:50:59;;;;;;;2.20;1.40;;;21.60;60.30;;;;;;4997852;28;20221;-81
2023/09/01 05:53:27;;;;;;;1.65;1.42;;;21.60;60.40;;;;;;4998228;28;20201;-81
2023/09/01 05:55:55;;;;;;;1.65;1.42;;;21.50;60.20;;;;;;4997824;28;20348;-80
2023/09/01 05:58:22;;;;;;;2.08;1.50;;;21.60;60.30;;;;;;4997565;28;20193;-80
2023/09/01 06:00:50;;;;;;;3.45;1.58;;;21.60;60.40;;;;;;4997299;28;20263;-81
2023/09/01 06:03:17;;;;;;;2.78;1.55;;;21.60;60.40;;;;;;4997342;28;20272;-81
2023/09/01 06:05:44;;;;;;;1.50;1.40;;;21.60;60.40;;;;;;4981645;28;20198;-81
2023/09/01 06:08:11;;;;;;;2.17;1.63;;;21.60;60.40;;;;;;4997723;28;20198;-81
2023/09/01 06:10:38;;;;;;;6.70;1.88;;;21.60;60.50;;;;;;4997911;28;20293;-81
2023/09/01 06:13:06;;;;;;;2.53;1.60;;;21.60;60.50;;;;;;4998041;28;20660;-81
2023/09/01 06:15:33;;;;;;;1.63;1.20;;;21.70;60.40;;;;;;4997642;28;20197;-81
2023/09/01 06:18:01;;;;;;;1.52;1.40;;;21.60;60.20;;;;;;4998328;28;20219;-81
2023/09/01 06:20:29;;;;;;;1.88;1.50;;;21.60;60.10;;;;;;4997263;28;20206;-81
2023/09/01 06:22:56;;;;;;;1.75;1.58;;;21.70;60.20;;;;;;4997234;28;20255;-81
2023/09/01 06:25:24;;;;;;;2.13;1.60;;;21.70;60.20;;;;;;4997045;28;20292;-81
2023/09/01 06:27:51;;;;;;;1.83;1.42;;;21.70;60.20;;;;;;4997735;28;20240;-81
2023/09/01 06:30:20;;;;;;;3.15;1.48;;;21.80;60.40;;;;;;4997968;28;20197;-81
2023/09/01 06:32:47;;;;;;;1.60;1.30;;;21.80;60.30;;;;;;4997479;28;20272;-81
2023/09/01 06:35:14;;;;;;;2.70;1.50;;;21.70;60.20;;;;;;4997558;28;20194;-81
2023/09/01 06:37:41;;;;;;;1.10;1.10;;;21.80;60.40;;;;;;4998520;28;20292;-81
2023/09/01 06:40:09;;;;;;;1.45;1.35;;;21.70;60.20;;;;;;4997549;28;20209;-81
2023/09/01 06:42:36;;;;;;;2.15;1.55;;;21.80;60.40;;;;;;4997858;28;20228;-81
2023/09/01 06:45:04;;;;;;;1.58;1.35;;;21.80;60.20;;;;;;4999254;28;20205;-81
2023/09/01 06:47:33;;;;;;;1.73;1.38;;;21.80;60.10;;;;;;4997852;28;20296;-81
2023/09/01 06:50:00;;;;;;;1.75;1.20;;;21.80;60.10;;;;;;4997479;28;20202;-80
2023/09/01 06:52:27;;;;;;;2.42;1.48;;;21.90;60.20;;;;;;4997355;28;20221;-81
2023/09/01 06:54:54;;;;;;;1.60;1.40;;;21.80;60.00;;;;;;4996500;28;20653;-81
2023/09/01 06:57:21;;;;;;;3.60;1.48;;;21.90;60.20;;;;;;4996545;28;20205;-81
2023/09/01 06:59:49;;;;;;;1.88;1.30;;;21.90;60.00;;;;;;4996775;28;20201;-81
2023/09/01 07:02:16;;;;;;;1.65;1.30;;;21.90;60.00;;;;;;4997137;28;20221;-81
2023/09/01 07:04:45;;;;;;;2.10;1.23;;;21.90;60.00;;;;;;4981035;28;20210;-81
2023/09/01 07:07:13;;;;;;;2.30;1.48;;;21.90;60.80;;;;;;4998382;28;20201;-81
2023/09/01 07:09:40;;;;;;;1.95;1.52;;;21.90;60.00;;;;;;4999881;28;20193;-81
2023/09/01 07:12:07;;;;;;;1.60;1.42;;;21.90;60.00;;;;;;5014508;28;20232;-81
2023/09/01 07:14:35;;;;;;;1.75;1.33;;;21.80;60.00;;;;;;4998106;28;20205;-81
2023/09/01 07:17:02;;;;;;;1.75;1.60;;;21.90;60.00;;;;;;4997499;28;20287;-81
2023/09/01 07:19:30;;;;;;;1.48;1.35;;;21.90;60.00;;;;;;4998158;28;20201;-81
2023/09/01 07:21:58;;;;;;;2.67;1.40;;;21.90;60.00;;;;;;4998347;28;20232;-81
2023/09/01 07:24:25;;;;;;;1.60;1.25;;;21.90;60.00;;;;;;4999402;28;20205;-81
2023/09/01 07:26:52;;;;;;;2.22;1.50;;;21.90;60.00;;;;;;4998709;28;20315;-81
2023/09/01 07:29:19;;;;;;;2.33;1.27;;;22.00;60.00;;;;;;4997460;28;20204;-81
2023/09/01 07:31:46;;;;;;;3.83;1.45;;;22.00;60.00;;;;;;4997847;28;20231;-81
2023/09/01 07:34:14;;;;;;;1.92;1.38;;;22.00;60.00;;;;;;4998044;28;20205;-79
2023/09/01 07:36:41;;;;;;;2.45;1.45;;;22.00;60.00;;;;;;4983328;28;20197;-81
2023/09/01 07:39:10;;;;;;;2.33;1.50;;;22.00;60.00;;;;;;5004336;28;20204;-81
2023/09/01 07:41:37;;;;;;;2.38;1.73;;;22.00;60.00;;;;;;5019514;28;20212;-81
2023/09/01 07:44:04;;;;;;;1.40;1.30;;;22.00;60.00;;;;;;5017367;28;20247;-80
2023/09/01 07:46:33;;;;;;;1.45;1.30;;;22.00;60.80;;;;;;4996104;28;20205;-80
2023/09/01 07:49:00;;;;;;;1.75;1.33;;;22.10;60.10;;;;;;4996804;28;20202;-81
2023/09/01 07:51:27;;;;;;;1.98;1.27;;;22.00;59.90;;;;;;4995746;28;20243;-81
2023/09/01 07:53:55;;;;;;;1.27;1.17;;;22.00;59.90;;;;;;4996106;28;20292;-81
2023/09/01 07:56:23;;;;;;;1.40;1.30;;;22.00;59.90;;;;;;4995942;28;20208;-81
2023/09/01 07:58:50;;;;;;;1.40;1.30;;;22.00;59.90;;;;;;4996151;28;20240;-81
2023/09/01 08:01:17;;;;;;;1.50;1.40;;;22.10;60.00;;;;;;4994992;28;20221;-81
2023/09/01 08:03:45;;;;;;;1.40;1.27;;;22.10;59.90;;;;;;4995406;28;20213;-81
2023/09/01 08:06:11;;;;;;;1.58;1.40;;;22.10;59.90;;;;;;4995328;28;20641;-81
2023/09/01 08:08:39;;;;;;;1.48;1.30;;;22.10;59.90;;;;;;4995848;28;20209;-81
2023/09/01 08:11:05;;;;;;;1.30;1.20;;;22.10;59.90;;;;;;4994965;28;20268;-81
2023/09/01 08:13:34;;;;;;;1.45;1.35;;;22.20;60.00;;;;;;4995454;28;20204;-81
2023/09/01 08:16:01;;;;;;;1.35;1.15;;;22.10;59.90;;;;;;4994781;28;20216;-81
2023/09/01 08:18:28;;;;;;;1.38;1.17;;;22.20;59.90;;;;;;4996460;28;20190;-81
2023/09/01 08:20:55;;;;;;;1.73;1.20;;;22.20;59.70;;;;;;4995088;28;20310;-81
2023/09/01 08:23:22;;;;;;;1.38;1.27;;;22.20;59.70;;;;;;4994903;28;20231;-81
2023/09/01 08:25:50;;;;;;;1.38;1.27;;;22.30;59.80;;;;;;4995473;28;20215;-81
2023/09/01 08:28:17;;;;;;;1.50;1.40;;;22.30;59.70;;;;;;4994900;28;20224;-81
2023/09/01 08:30:46;;;;;;;1.50;1.40;;;22.20;59.60;;;;;;4994714;28;20252;-81
2023/09/01 08:33:15;;;;;;;1.38;1.10;;;22.30;59.60;;;;;;4996329;28;20281;-81
2023/09/01 08:35:43;;;;;;;1.40;1.30;;;22.30;60.00;;;;;;4994941;28;20208;-81
2023/09/01 08:38:10;;;;;;;2.78;1.30;;;22.30;59.60;;;;;;4994765;28;20704;-81
2023/09/01 08:40:37;;;;;;;2.05;1.30;;;22.30;59.30;;;;;;4994633;28;20719;-81
2023/09/01 08:43:04;;;;;;;1.83;1.42;;;22.30;59.30;;;;;;4994675;28;20225;-81
2023/09/01 08:45:31;;;;;;;1.67;1.45;;;22.50;59.40;;;;;;4994722;28;20229;-81
2023/09/01 08:48:03;;;;;;;2.45;1.30;;;22.50;59.20;;;;;;4994847;28;20205;-81
2023/09/01 08:50:30;;;;;;;1.33;1.20;;;22.60;58.80;;;;;;4996713;28;20209;-81
2023/09/01 08:52:58;;;;;;;1.58;1.48;;;22.60;59.20;;;;;;4995499;28;20202;-81
2023/09/01 08:55:25;;;;;;;1.42;1.33;;;22.70;58.80;;;;;;4995580;28;20216;-81
2023/09/01 08:57:52;;;;;;;1.38;1.27;;;22.70;58.80;;;;;;4995111;28;20292;-81
2023/09/01 09:00:19;;;;;;;1.20;1.10;;;22.70;58.70;;;;;;4994432;28;20252;-81
2023/09/01 09:02:46;;;;;;;2.67;1.33;;;22.70;58.60;;;;;;4994129;28;20214;-81
2023/09/01 09:05:15;;;;;;;1.90;1.20;;;22.70;58.50;;;;;;4994195;28;20296;-81
2023/09/01 09:07:43;;;;;;;1.58;1.10;;;22.80;58.70;;;;;;4994288;28;20208;-81
2023/09/01 09:10:10;;;;;;;1.42;1.20;;;22.70;58.60;;;;;;4993859;28;20621;-81
2023/09/01 09:12:38;;;;;;;1.20;1.10;;;22.80;58.80;;;;;;4993878;28;20232;-81
2023/09/01 09:15:06;;;;;;;1.35;1.25;;;22.80;58.70;;;;;;4993685;28;20205;-81
2023/09/01 09:17:44;;;;;;;1.70;1.35;;;22.90;58.60;;;;;;4993826;28;20211;-81
2023/09/01 09:20:11;;;;;;;1.40;1.23;;;22.90;58.30;;;;;;4994335;28;20624;-81
2023/09/01 09:22:53;;;;;;;1.73;1.25;;;23.00;58.20;;;;;;4993723;28;20220;-81
2023/09/01 09:25:24;;;;;;;1.73;1.15;;;23.10;57.80;;;;;;4993907;28;20200;-81
2023/09/01 09:27:52;;;;;;;1.25;1.10;;;23.30;57.50;;;;;;4994990;28;20212;-81
2023/09/01 09:30:20;;;;;;;1.88;1.20;;;23.40;57.20;;;;;;4994835;28;20288;-81
2023/09/01 09:32:48;;;;;;;1.20;1.10;;;23.60;56.70;;;;;;4994968;28;20202;-81
2023/09/01 09:35:19;;;;;;;1.60;1.20;;;23.60;56.30;;;;;;4995237;28;20200;-81
2023/09/01 09:37:47;;;;;;;1.75;1.10;;;23.80;56.20;;;;;;4994516;28;20280;-81
2023/09/01 09:40:17;;;;;;;1.15;1.10;;;23.90;56.00;;;;;;5010678;28;20225;-81
2023/09/01 09:42:45;;;;;;;1.27;1.17;;;24.00;55.70;;;;;;4994434;28;20228;-81
2023/09/01 09:45:23;;;;;;;1.60;0.95;;;24.00;55.50;;;;;;4994642;28;20640;-81
2023/09/01 09:47:50;;;;;;;1.15;1.05;;;24.00;56.20;;;;;;4993702;28;20212;-81
2023/09/01 09:50:18;;;;;;;1.63;1.35;;;24.00;55.60;;;;;;4994286;28;20288;-81
2023/09/01 09:52:46;;;;;;;1.13;1.02;;;24.00;55.70;;;;;;4994523;28;20304;-81
2023/09/01 09:55:13;;;;;;;1.45;1.20;;;24.00;55.70;;;;;;4994280;28;20540;-81
2023/09/01 09:57:42;;;;;;;2.72;1.30;;;23.90;55.80;;;;;;4993882;28;20641;-81
2023/09/01 10:00:10;;;;;;;1.20;1.10;;;23.90;55.90;;;;;;4977575;28;20229;-81
2023/09/01 10:02:46;;;;;;;1.45;1.35;;;23.90;56.00;;;;;;4994010;28;20243;-81
2023/09/01 10:05:15;;;;;;;2.20;1.20;;;23.80;55.90;;;;;;4994562;28;20205;-81
2023/09/01 10:07:42;;;;;;;1.38;1.27;;;23.80;56.00;;;;;;4993885;28;20206;-81
2023/09/01 10:10:11;;;;;;;2.03;1.27;;;23.80;56.10;;;;;;5185660;22;20232;-81
2023/09/01 10:12:38;;;;;;;1.10;1.05;;;23.70;56.10;;;;;;5032536;28;20196;-82
2023/09/01 10:15:07;;;;;;;1.10;1.00;;;23.80;56.20;;;;;;5033893;28;20195;-82
2023/09/01 10:17:35;;;;;;;1.33;1.20;;;23.70;56.20;;;;;;5032237;28;20647;-82
2023/09/01 10:20:06;;;;;;;1.35;1.00;;;23.70;56.30;;;;;;5032542;28;20200;-82
2023/09/01 10:22:38;;;;;;;0.93;0.93;;;23.70;56.30;;;;;;5032297;28;20216;-82
2023/09/01 10:25:14;;;;;;;1.02;1.00;;;23.70;56.30;;;;;;5034680;28;20605;-82
2023/09/01 10:28:07;;;;;;;1.30;1.20;;;23.70;56.40;;;;;;5036059;28;20191;-82
2023/09/01 10:30:36;;;;;;;1.15;0.93;;;23.70;56.40;;;;;;5036173;28;20231;-82
2023/09/01 10:33:05;;;;;;;1.23;1.10;;;23.70;56.30;;;;;;5037149;28;20212;-82
2023/09/01 10:35:40;;;;;;;1.15;1.15;;;23.80;56.30;;;;;;5036262;28;20274;-82
2023/09/01 10:38:12;;;;;;;1.10;1.10;;;23.80;56.40;;;;;;5035995;28;20219;-82
2023/09/01 10:40:40;;;;;;;1.05;1.00;;;23.80;56.30;;;;;;5087638;22;20234;-81
2023/09/01 10:43:07;;;;;;;1.17;1.08;;;23.80;56.30;;;;;;5016631;28;20632;-81
2023/09/01 10:45:36;;;;;;;1.00;1.00;;;23.70;56.30;;;;;;4999445;28;20256;-81
2023/09/01 10:48:04;;;;;;;1.27;1.17;;;23.80;56.30;;;;;;4999016;28;20239;-81
2023/09/01 10:50:34;;;;;;;1.65;1.20;;;23.80;56.30;;;;;;4999513;28;20221;-81
2023/09/01 10:56:08;;;;;;;1.30;1.20;;;23.80;56.30;;;;;;5113831;27;20538;-82
2023/09/01 10:58:39;;;;;;;1.10;1.08;;;23.80;56.30;;;;;;5111466;28;20670;-82
2023/09/01 11:01:26;;;;;;;1.15;1.05;;;23.80;56.30;;;;;;5111501;28;20217;-82
2023/09/01 11:03:53;;;;;;;1.27;1.10;;;23.80;56.30;;;;;;5113529;28;20193;-82
2023/09/01 11:06:20;;;;;;;1.20;1.10;;;23.80;56.40;;;;;;5112347;28;20197;-81
2023/09/01 11:08:58;;;;;;;1.38;1.25;;;23.70;56.50;;;;;;5111671;28;20197;-81
2023/09/01 11:11:26;;;;;;;1.33;1.23;;;23.70;56.60;;;;;;5110986;28;20221;-81
2023/09/01 11:13:54;;;;;;;1.20;1.10;;;23.80;56.60;;;;;;5111424;28;20198;-82
2023/09/01 11:16:21;;;;;;;0.90;0.90;;;23.80;56.40;;;;;;5112658;28;20185;-82
2023/09/01 11:18:59;;;;;;;0.82;0.82;;;23.80;56.30;;;;;;5117374;28;20193;-82
2023/09/01 11:21:26;;;;;;;1.05;0.98;;;23.90;56.30;;;;;;5134220;28;20223;-81
2023/09/01 11:23:57;;;;;;;1.00;0.90;;;24.00;56.30;;;;;;5132303;28;20177;-81
2023/09/01 11:26:26;;;;;;;1.20;1.10;;;23.90;56.30;;;;;;5111056;28;20225;-82
2023/09/01 11:28:53;;;;;;;0.98;0.90;;;24.00;56.20;;;;;;5094157;28;20202;-82
2023/09/01 11:31:20;;;;;;;1.20;1.10;;;24.00;56.20;;;;;;5110365;28;20295;-82
2023/09/01 11:33:52;;;;;;;1.50;1.10;;;24.00;56.10;;;;;;5110298;28;20194;-82
2023/09/01 11:36:19;;;;;;;1.20;1.10;;;24.00;56.00;;;;;;5110720;28;20211;-82
2023/09/01 11:38:46;;;;;;;1.02;1.00;;;24.10;55.90;;;;;;5110502;28;20333;-82
2023/09/01 11:41:14;;;;;;;0.98;0.98;;;24.10;55.80;;;;;;5093336;28;20271;-82
2023/09/01 11:43:42;;;;;;;1.17;1.05;;;24.10;55.80;;;;;;5110213;28;20193;-82
2023/09/01 11:46:10;;;;;;;1.08;1.08;;;24.10;55.70;;;;;;5110390;28;20205;-82
2023/09/01 11:48:37;;;;;;;1.20;1.10;;;24.20;55.80;;;;;;5110104;28;20197;-83
2023/09/01 11:51:04;;;;;;;1.85;1.00;;;24.20;55.70;;;;;;5110376;28;20221;-83
2023/09/01 11:53:32;;;;;;;0.98;0.80;;;24.20;55.70;;;;;;5110549;28;20228;-83
2023/09/01 11:56:01;;;;;;;1.17;1.08;;;24.20;55.70;;;;;;5110721;28;20235;-83
2023/09/01 11:58:48;;;;;;;1.15;0.80;;;24.20;55.60;;;;;;5110373;28;20198;-83
2023/09/01 12:01:15;;;;;;;1.35;1.23;;;24.20;55.60;;;;;;5110242;28;20221;-83
2023/09/01 12:03:44;;;;;;;1.17;0.90;;;24.20;55.50;;;;;;5110901;28;20205;-83
2023/09/01 12:06:16;;;;;;;1.00;1.00;;;24.20;55.50;;;;;;5103209;28;20204;-82
2023/09/01 12:08:43;;;;;;;1.02;1.00;;;24.20;55.60;;;;;;5096471;28;20228;-83
2023/09/01 12:11:10;;;;;;;1.20;1.10;;;24.30;55.60;;;;;;5096783;28;20218;-83
2023/09/01 12:13:37;;;;;;;1.80;1.00;;;24.30;55.60;;;;;;5097962;28;20644;-83
2023/09/01 12:16:05;;;;;;;1.20;0.90;;;24.30;55.60;;;;;;5062992;28;20275;-83
2023/09/01 12:18:38;;;;;;;1.10;1.00;;;24.30;55.60;;;;;;5098285;28;20200;-83
2023/09/01 12:21:07;;;;;;;1.13;1.10;;;24.30;55.50;;;;;;5102512;28;20222;-84
2023/09/01 12:23:35;;;;;;;0.70;0.70;;;24.30;55.50;;;;;;5103016;28;20330;-84
2023/09/01 12:26:02;;;;;;;1.05;1.00;;;24.30;55.50;;;;;;5101999;28;20657;-83
2023/09/01 12:28:30;;;;;;;1.20;1.10;;;24.30;55.50;;;;;;5101981;28;20601;-83
2023/09/01 12:30:57;;;;;;;1.05;0.95;;;24.30;55.50;;;;;;5101922;28;20225;-83
2023/09/01 12:33:25;;;;;;;1.00;0.98;;;24.40;55.50;;;;;;5102084;28;20217;-83
2023/09/01 12:35:52;;;;;;;1.20;1.00;;;24.40;55.60;;;;;;5101534;28;20213;-83
2023/09/01 12:38:19;;;;;;;1.15;1.02;;;24.40;55.50;;;;;;5085449;28;20190;-83
2023/09/01 12:40:46;;;;;;;0.90;0.90;;;24.40;55.50;;;;;;5102867;28;20256;-83
2023/09/01 12:43:13;;;;;;;0.93;0.93;;;24.40;55.60;;;;;;5100858;28;20209;-83
2023/09/01 12:45:41;;;;;;;0.90;0.90;;;24.30;55.50;;;;;;5099792;28;20192;-83
2023/09/01 12:48:08;;;;;;;1.10;1.00;;;24.40;55.50;;;;;;5096957;28;20204;-83
2023/09/01 12:50:37;;;;;;;1.00;1.00;;;24.30;55.50;;;;;;5096460;28;20213;-83
2023/09/01 12:53:04;;;;;;;1.08;0.90;;;24.30;55.50;;;;;;5096487;28;20190;-83
2023/09/01 12:55:34;;;;;;;0.93;0.93;;;24.30;55.60;;;;;;5095555;28;20232;-83
2023/09/01 12:58:02;;;;;;;1.00;0.90;;;24.30;55.60;;;;;;5096042;28;20201;-83